Time;durP1;ratioP1;P1;durP2;ratioP2;P2;SDS_P1;SDS_P2;PMS_P1;PMS_P2;Temp;Humidity;BMP_temperature;BMP_pressure;BME280_temperature;BME280_humidity;BME280_pressure;Samples;Min_cycle;Max_cycle;Signal;HPM_P1;HPM_P2
2023/01/27 00:02:19;;;;;;;32.17;23.20;;;4.30;99.90;;;;;;4940778;28;89328;-33
2023/01/27 00:04:45;;;;;;;31.17;25.52;;;4.30;99.90;;;;;;4940545;28;88880;-34
2023/01/27 00:07:11;;;;;;;26.65;20.58;;;4.30;99.90;;;;;;4941280;28;89617;-33
2023/01/27 00:09:36;;;;;;;22.02;17.23;;;4.30;99.90;;;;;;4939404;28;89702;-33
2023/01/27 00:14:46;;;;;;;22.17;15.40;;;4.30;99.90;;;;;;4939971;28;90156;-32
2023/01/27 00:17:12;;;;;;;28.23;21.42;;;4.30;99.90;;;;;;4939632;28;89557;-32
2023/01/27 00:19:37;;;;;;;25.67;21.38;;;4.30;99.90;;;;;;4940538;28;89407;-32
2023/01/27 00:24:47;;;;;;;20.48;17.02;;;4.30;99.90;;;;;;4940878;28;90574;-34
2023/01/27 00:27:12;;;;;;;25.23;18.70;;;4.30;99.90;;;;;;4939802;28;90646;-32
2023/01/27 00:29:39;;;;;;;22.25;16.77;;;4.30;99.90;;;;;;4938411;28;90667;-35
2023/01/27 00:34:49;;;;;;;24.73;19.27;;;4.30;99.90;;;;;;4939245;28;90363;-32
2023/01/27 00:37:14;;;;;;;23.13;15.68;;;4.20;99.90;;;;;;4939015;28;89186;-34
2023/01/27 00:39:40;;;;;;;20.75;12.90;;;4.20;99.90;;;;;;4939239;28;89237;-33
2023/01/27 00:42:06;;;;;;;24.35;16.42;;;4.30;99.90;;;;;;4940517;28;88906;-33
2023/01/27 00:44:32;;;;;;;18.80;14.32;;;4.20;99.90;;;;;;4940029;28;90041;-33
2023/01/27 00:46:57;;;;;;;18.48;13.93;;;4.20;99.90;;;;;;4939694;28;89556;-35
2023/01/27 00:49:23;;;;;;;21.80;15.15;;;4.20;99.90;;;;;;4939810;28;88077;-33
2023/01/27 00:51:50;;;;;;;23.63;15.50;;;4.20;99.90;;;;;;4939455;28;89473;-34
2023/01/27 00:54:16;;;;;;;26.48;15.50;;;4.20;99.90;;;;;;4939984;28;90038;-35
2023/01/27 00:56:41;;;;;;;21.20;16.77;;;4.20;99.90;;;;;;4940137;28;89811;-32
2023/01/27 00:59:07;;;;;;;20.35;14.18;;;4.20;99.90;;;;;;4939273;28;89530;-34
2023/01/27 01:01:33;;;;;;;17.80;14.63;;;4.20;99.90;;;;;;4940178;28;88430;-32
2023/01/27 01:04:00;;;;;;;19.83;15.80;;;4.10;99.90;;;;;;4939158;28;90261;-32
2023/01/27 01:06:26;;;;;;;18.65;14.30;;;4.10;99.90;;;;;;4939277;28;89912;-33
2023/01/27 01:08:52;;;;;;;20.13;14.13;;;4.10;99.90;;;;;;4940185;28;89337;-32
2023/01/27 01:11:19;;;;;;;16.13;13.15;;;4.10;99.90;;;;;;4939932;28;89164;-31
2023/01/27 01:13:45;;;;;;;13.30;11.90;;;4.10;99.90;;;;;;4939609;28;89133;-33
2023/01/27 01:16:21;;;;;;;17.92;13.23;;;4.10;99.90;;;;;;4938631;28;90958;-33
2023/01/27 01:18:47;;;;;;;13.60;11.30;;;4.10;99.90;;;;;;4939462;28;90415;-32
2023/01/27 01:21:13;;;;;;;12.80;11.40;;;4.10;99.90;;;;;;4940069;28;88123;-34
2023/01/27 01:23:41;;;;;;;14.50;10.18;;;4.10;99.90;;;;;;4939068;28;89103;-33
2023/01/27 01:26:08;;;;;;;16.13;10.80;;;4.10;99.90;;;;;;4939473;28;91069;-34
2023/01/27 01:28:34;;;;;;;17.65;11.00;;;4.10;99.90;;;;;;4939416;28;89395;-33
2023/01/27 01:31:05;;;;;;;13.57;10.13;;;4.10;99.90;;;;;;4939614;28;88228;-32
2023/01/27 01:33:30;;;;;;;10.65;9.18;;;4.20;99.90;;;;;;4940352;28;90230;-31
2023/01/27 01:35:56;;;;;;;11.25;9.55;;;4.10;99.90;;;;;;4939843;28;89791;-32
2023/01/27 01:38:21;;;;;;;11.43;8.07;;;4.20;99.90;;;;;;4940135;28;89537;-34
2023/01/27 01:40:47;;;;;;;12.90;9.70;;;4.20;99.90;;;;;;4939229;28;90483;-33
2023/01/27 01:43:17;;;;;;;12.85;8.00;;;4.20;99.90;;;;;;4939404;28;90093;-35
2023/01/27 01:45:46;;;;;;;10.13;7.70;;;4.20;99.90;;;;;;4939194;28;89320;-33
2023/01/27 01:48:34;;;;;;;10.13;7.97;;;4.20;99.90;;;;;;4939748;28;89550;-33
2023/01/27 01:51:09;;;;;;;9.23;8.20;;;4.20;99.90;;;;;;4939531;28;90204;-35
2023/01/27 01:53:47;;;;;;;12.48;7.97;;;4.20;99.90;;;;;;4940381;28;89655;-33
2023/01/27 01:56:16;;;;;;;8.68;7.53;;;4.10;99.90;;;;;;4939153;28;89653;-32
2023/01/27 01:58:44;;;;;;;9.63;7.65;;;4.20;99.90;;;;;;4939842;28;89140;-33
2023/01/27 02:01:12;;;;;;;8.38;7.45;;;4.20;99.90;;;;;;4939775;28;89969;-32
2023/01/27 02:03:42;;;;;;;9.55;8.15;;;4.20;99.90;;;;;;4939198;28;88839;-32
2023/01/27 02:06:10;;;;;;;9.40;8.25;;;4.20;99.90;;;;;;4938193;28;90284;-33
2023/01/27 02:08:42;;;;;;;12.63;8.90;;;4.20;99.90;;;;;;4939658;28;90417;-36
2023/01/27 02:11:08;;;;;;;11.70;8.63;;;4.30;99.90;;;;;;4939863;28;89224;-32
2023/01/27 02:13:34;;;;;;;9.52;8.55;;;4.20;99.90;;;;;;4939586;28;90477;-32
2023/01/27 02:16:01;;;;;;;16.02;9.82;;;4.20;99.90;;;;;;4938666;28;89433;-31
2023/01/27 02:18:28;;;;;;;10.32;8.68;;;4.20;99.90;;;;;;4939015;28;87844;-32
2023/01/27 02:20:54;;;;;;;10.05;7.25;;;4.20;99.90;;;;;;4940210;28;88220;-31
2023/01/27 02:23:19;;;;;;;13.80;8.65;;;4.20;99.90;;;;;;4939245;28;90042;-32
2023/01/27 02:26:17;;;;;;;8.90;7.38;;;4.20;99.90;;;;;;4939508;28;89988;-31
2023/01/27 02:28:43;;;;;;;10.75;7.43;;;4.10;99.90;;;;;;4932546;28;89241;-35
2023/01/27 02:31:09;;;;;;;9.23;8.20;;;4.20;99.90;;;;;;4939430;28;88105;-31
2023/01/27 02:33:34;;;;;;;8.00;7.22;;;4.10;99.90;;;;;;4939181;28;90288;-34
2023/01/27 02:36:02;;;;;;;9.32;8.15;;;4.20;99.90;;;;;;4939286;28;89585;-31
2023/01/27 02:38:50;;;;;;;5.97;5.38;;;4.20;99.90;;;;;;4938413;28;89211;-32
2023/01/27 02:41:31;;;;;;;6.68;5.97;;;4.20;99.90;;;;;;4939408;28;88335;-33
2023/01/27 02:43:56;;;;;;;7.35;5.50;;;4.30;99.90;;;;;;4939456;28;90509;-32
2023/01/27 02:46:22;;;;;;;9.88;5.85;;;4.30;99.90;;;;;;4938797;28;88722;-33
2023/01/27 02:48:48;;;;;;;7.30;5.30;;;4.30;99.90;;;;;;4939428;28;89659;-32
2023/01/27 02:51:13;;;;;;;8.32;5.25;;;4.30;99.90;;;;;;4938468;28;89751;-31
2023/01/27 02:53:39;;;;;;;8.52;4.78;;;4.30;99.90;;;;;;4939059;28;90354;-34
2023/01/27 02:56:06;;;;;;;5.97;4.22;;;4.30;99.90;;;;;;4940549;28;90272;-34
2023/01/27 02:58:31;;;;;;;6.20;5.60;;;4.40;99.90;;;;;;4942482;28;91679;-32
2023/01/27 03:00:57;;;;;;;10.57;4.10;;;4.40;99.90;;;;;;4942751;28;89272;-31
2023/01/27 03:03:22;;;;;;;7.10;4.03;;;4.40;99.90;;;;;;4942864;28;90265;-31
2023/01/27 03:05:50;;;;;;;12.65;4.82;;;4.40;99.90;;;;;;4942117;28;89651;-32
2023/01/27 03:08:17;;;;;;;6.05;4.45;;;4.40;99.90;;;;;;4942566;28;90369;-33
2023/01/27 03:10:43;;;;;;;5.78;4.47;;;4.50;99.90;;;;;;4941948;28;87657;-33
2023/01/27 03:13:08;;;;;;;11.27;4.63;;;4.50;99.90;;;;;;4942211;28;89834;-32
2023/01/27 03:18:21;;;;;;;4.47;3.63;;;4.50;99.90;;;;;;4942019;28;89686;-33
2023/01/27 03:20:48;;;;;;;4.23;3.93;;;4.50;99.90;;;;;;4940940;28;90065;-33
2023/01/27 03:23:15;;;;;;;3.80;3.40;;;4.50;99.90;;;;;;4941925;28;89843;-33
2023/01/27 03:25:44;;;;;;;4.57;3.43;;;4.50;99.90;;;;;;4929412;28;89635;-32
2023/01/27 03:28:10;;;;;;;;;;;4.50;99.90;;;;;;4942579;28;89145;-33
2023/01/27 03:30:36;;;;;;;4.30;3.70;;;4.50;99.90;;;;;;4943253;28;89046;-36
2023/01/27 03:33:02;;;;;;;4.25;3.83;;;4.50;99.90;;;;;;4941995;28;90446;-34
2023/01/27 03:35:33;;;;;;;4.07;3.28;;;4.50;99.90;;;;;;4941298;28;90111;-33
2023/01/27 03:46:17;;;;;;;4.03;3.60;;;4.60;99.90;;;;;;4940971;28;90781;-33
2023/01/27 03:48:43;;;;;;;4.85;4.35;;;4.60;99.90;;;;;;4940968;28;90646;-32
2023/01/27 03:51:10;;;;;;;4.10;3.53;;;4.60;99.90;;;;;;4941991;28;87888;-33
2023/01/27 03:53:36;;;;;;;5.13;4.57;;;4.50;99.90;;;;;;4941709;28;89724;-37
2023/01/27 03:56:03;;;;;;;4.50;4.10;;;4.50;99.90;;;;;;4940946;28;89825;-33
2023/01/27 03:58:31;;;;;;;4.78;3.83;;;4.50;99.90;;;;;;4941434;28;89422;-31
2023/01/27 04:01:15;;;;;;;5.40;4.25;;;4.50;99.90;;;;;;4941384;28;88730;-32
2023/01/27 04:09:26;;;;;;;6.45;4.25;;;4.60;99.90;;;;;;4940591;28;89578;-34
2023/01/27 04:11:56;;;;;;;4.63;4.13;;;4.50;99.90;;;;;;4941459;28;88289;-31
2023/01/27 04:14:28;;;;;;;4.45;4.05;;;4.50;99.90;;;;;;4929331;28;90358;-33
2023/01/27 04:17:06;;;;;;;6.28;4.32;;;4.50;99.90;;;;;;4941231;28;89685;-32
2023/01/27 04:19:32;;;;;;;4.35;3.72;;;4.40;99.90;;;;;;4940564;28;90617;-32
2023/01/27 04:21:59;;;;;;;6.38;4.68;;;4.50;99.90;;;;;;4941790;28;88523;-31
2023/01/27 04:24:25;;;;;;;4.47;4.07;;;4.40;99.90;;;;;;4941096;28;90296;-33
2023/01/27 04:26:54;;;;;;;4.72;4.32;;;4.40;99.90;;;;;;4940568;28;89845;-32
2023/01/27 04:29:20;;;;;;;;;;;4.40;99.90;;;;;;4940620;28;89122;-32
2023/01/27 04:31:46;;;;;;;5.30;4.55;;;4.40;99.90;;;;;;4943377;28;89500;-33
2023/01/27 04:34:12;;;;;;;4.68;4.13;;;4.30;99.90;;;;;;4940549;28;90199;-32
2023/01/27 04:36:39;;;;;;;4.43;4.00;;;4.30;99.90;;;;;;4939914;28;90814;-32
2023/01/27 04:39:05;;;;;;;4.30;3.90;;;4.30;99.90;;;;;;4941694;28;90177;-31
2023/01/27 04:41:31;;;;;;;4.22;3.92;;;4.30;99.90;;;;;;4940610;28;89557;-34
2023/01/27 04:43:56;;;;;;;5.88;4.38;;;4.20;99.90;;;;;;4940844;28;90217;-32
2023/01/27 04:46:22;;;;;;;3.95;3.65;;;4.20;99.90;;;;;;4940411;28;89837;-32
2023/01/27 04:48:48;;;;;;;3.60;2.85;;;4.20;99.90;;;;;;4940250;28;89171;-35
2023/01/27 04:51:13;;;;;;;7.45;3.65;;;4.20;99.90;;;;;;4940633;28;90062;-34
2023/01/27 04:53:39;;;;;;;3.83;3.53;;;4.20;99.90;;;;;;4940701;28;90224;-34
2023/01/27 04:56:13;;;;;;;3.40;3.08;;;4.20;99.90;;;;;;4940719;28;89418;-32
2023/01/27 04:58:38;;;;;;;8.63;2.83;;;4.20;99.90;;;;;;4940464;28;88427;-32
2023/01/27 05:01:04;;;;;;;5.15;3.75;;;4.10;99.90;;;;;;4940390;28;90036;-32
2023/01/27 05:03:29;;;;;;;4.00;3.15;;;4.20;99.90;;;;;;4939793;28;89843;-30
2023/01/27 05:05:55;;;;;;;5.40;3.10;;;4.10;99.90;;;;;;4939787;28;89593;-34
2023/01/27 05:08:21;;;;;;;4.55;3.05;;;4.10;99.90;;;;;;4940339;28;89760;-34
2023/01/27 05:10:46;;;;;;;7.28;3.67;;;4.10;99.90;;;;;;4940296;28;90002;-33
2023/01/27 05:13:12;;;;;;;5.22;3.25;;;4.20;99.90;;;;;;4941117;28;89808;-32
2023/01/27 05:15:38;;;;;;;3.83;3.45;;;4.10;99.90;;;;;;4939017;28;89787;-33
2023/01/27 05:18:04;;;;;;;4.10;3.22;;;4.20;99.90;;;;;;4940902;28;89551;-34
2023/01/27 05:20:30;;;;;;;4.35;2.47;;;4.30;99.90;;;;;;4940102;28;88785;-32
2023/01/27 05:23:34;;;;;;;3.00;2.45;;;4.30;99.90;;;;;;4940056;28;90192;-34
2023/01/27 05:25:43;;;;;;;3.75;3.40;;;4.40;99.90;;;;;;4939719;28;91719;-32
2023/01/27 05:28:09;;;;;;;5.85;3.58;;;4.30;99.90;;;;;;4940330;28;90597;-31
2023/01/27 05:30:35;;;;;;;2.95;2.72;;;4.20;99.90;;;;;;4939977;28;89577;-34
2023/01/27 05:33:01;;;;;;;9.95;3.05;;;4.20;99.90;;;;;;4940404;28;89148;-31
2023/01/27 05:35:26;;;;;;;5.70;3.30;;;4.10;99.90;;;;;;4940045;28;89593;-31
2023/01/27 05:37:52;;;;;;;3.83;3.53;;;4.20;99.90;;;;;;4940562;28;89785;-35
2023/01/27 05:40:18;;;;;;;6.30;3.95;;;4.20;99.90;;;;;;4939923;28;88783;-33
2023/01/27 05:42:43;;;;;;;4.35;3.35;;;4.20;99.90;;;;;;4939685;28;90379;-33
2023/01/27 05:45:09;;;;;;;5.63;4.00;;;4.20;99.90;;;;;;4940263;28;88973;-33
2023/01/27 05:47:35;;;;;;;5.97;3.92;;;4.20;99.90;;;;;;4939634;28;89302;-32
2023/01/27 05:50:00;;;;;;;8.07;2.72;;;4.20;99.90;;;;;;4939463;28;90122;-34
2023/01/27 05:52:26;;;;;;;3.15;2.90;;;4.10;99.90;;;;;;4938432;28;90257;-31
2023/01/27 05:54:51;;;;;;;7.10;3.28;;;4.10;99.90;;;;;;4939643;28;89847;-32
2023/01/27 05:57:17;;;;;;;5.80;4.75;;;4.00;99.90;;;;;;4939412;28;89592;-33
2023/01/27 05:59:43;;;;;;;7.40;4.60;;;4.00;99.90;;;;;;4940746;28;90100;-31
2023/01/27 06:02:09;;;;;;;7.65;3.95;;;4.00;99.90;;;;;;4940203;28;90064;-32
2023/01/27 06:04:34;;;;;;;5.63;3.05;;;4.00;99.90;;;;;;4939137;28;89708;-32
2023/01/27 06:07:00;;;;;;;5.03;3.67;;;4.00;99.90;;;;;;4939202;28;89534;-32
2023/01/27 06:09:26;;;;;;;4.28;3.85;;;4.00;99.90;;;;;;4939942;28;90008;-32
2023/01/27 06:11:51;;;;;;;3.72;3.28;;;4.00;99.90;;;;;;4939873;28;89753;-32
2023/01/27 06:14:18;;;;;;;4.20;3.72;;;4.00;99.90;;;;;;4938937;28;90656;-32
2023/01/27 06:16:46;;;;;;;5.32;3.70;;;4.00;99.90;;;;;;4938557;28;90407;-33
2023/01/27 06:19:11;;;;;;;4.93;3.83;;;4.00;99.90;;;;;;4939879;28;89074;-33
2023/01/27 06:21:37;;;;;;;5.90;3.72;;;4.00;99.90;;;;;;4939013;28;89627;-33
2023/01/27 06:24:03;;;;;;;4.18;2.97;;;4.00;99.90;;;;;;4939763;28;89575;-33
2023/01/27 06:26:28;;;;;;;5.68;4.05;;;4.00;99.90;;;;;;4939717;28;89569;-31
2023/01/27 06:28:56;;;;;;;5.45;3.88;;;4.00;99.90;;;;;;4939155;28;88300;-33
2023/01/27 06:31:22;;;;;;;4.95;3.63;;;3.90;99.90;;;;;;4941251;28;90083;-33
2023/01/27 06:33:49;;;;;;;4.13;3.67;;;4.00;99.90;;;;;;4930245;28;88801;-35
2023/01/27 06:36:17;;;;;;;4.22;3.83;;;4.00;99.90;;;;;;4942523;28;90989;-32
2023/01/27 06:38:43;;;;;;;4.03;3.67;;;3.90;99.90;;;;;;4942163;28;89574;-31
2023/01/27 06:41:09;;;;;;;4.35;3.95;;;3.90;99.90;;;;;;4942765;28;90136;-32
2023/01/27 06:43:35;;;;;;;3.20;2.90;;;3.80;99.90;;;;;;4943109;28;88699;-33
2023/01/27 06:46:01;;;;;;;6.43;3.70;;;3.90;99.90;;;;;;4942038;28;89184;-35
2023/01/27 06:48:27;;;;;;;4.00;3.63;;;3.90;99.90;;;;;;4943003;28;89504;-32
2023/01/27 06:50:54;;;;;;;6.82;3.58;;;3.90;99.90;;;;;;4941516;28;90887;-31
2023/01/27 06:53:20;;;;;;;5.30;3.97;;;4.00;99.90;;;;;;4941850;28;89733;-32
2023/01/27 06:55:46;;;;;;;4.97;4.47;;;4.00;99.90;;;;;;4942660;28;89257;-32
2023/01/27 06:58:13;;;;;;;4.93;4.28;;;4.00;99.90;;;;;;4942864;28;89510;-33
2023/01/27 07:00:40;;;;;;;12.60;3.45;;;3.90;99.90;;;;;;4942119;28;90179;-33
2023/01/27 07:03:06;;;;;;;4.63;4.03;;;4.00;99.90;;;;;;4942358;28;90710;-31
2023/01/27 07:05:33;;;;;;;9.48;4.32;;;3.90;99.90;;;;;;4941528;28;90218;-32
2023/01/27 07:07:59;;;;;;;10.65;4.25;;;3.90;99.90;;;;;;4942628;28;89152;-33
2023/01/27 07:10:25;;;;;;;5.65;4.60;;;3.90;99.90;;;;;;4942033;28;90293;-32
2023/01/27 07:12:50;;;;;;;5.35;4.18;;;3.80;99.90;;;;;;4941593;28;89639;-31
2023/01/27 07:15:16;;;;;;;8.02;3.85;;;3.80;99.90;;;;;;4941939;28;89451;-33
2023/01/27 07:17:42;;;;;;;6.50;4.15;;;3.80;99.90;;;;;;4941928;28;89025;-34
2023/01/27 07:20:11;;;;;;;5.35;4.30;;;3.80;99.90;;;;;;4942320;28;90217;-33
2023/01/27 07:22:37;;;;;;;6.47;4.30;;;3.80;99.90;;;;;;4942195;28;90067;-33
2023/01/27 07:25:03;;;;;;;7.53;5.72;;;3.80;99.90;;;;;;4942069;28;89576;-33
2023/01/27 07:27:29;;;;;;;7.57;4.25;;;3.80;99.90;;;;;;4941497;28;90004;-31
2023/01/27 07:29:55;;;;;;;7.53;4.82;;;3.80;99.90;;;;;;4941475;28;90028;-34
2023/01/27 07:32:20;;;;;;;5.97;4.57;;;3.80;99.90;;;;;;4941921;28;89920;-31
2023/01/27 07:34:46;;;;;;;4.72;4.13;;;3.80;99.90;;;;;;4942157;28;90182;-34
2023/01/27 07:37:12;;;;;;;9.80;5.45;;;3.90;99.90;;;;;;4942371;28;89728;-33
2023/01/27 07:39:38;;;;;;;5.72;4.10;;;3.80;99.90;;;;;;4941282;28;89653;-32
2023/01/27 07:42:04;;;;;;;5.53;4.97;;;3.80;99.90;;;;;;4941587;28;90080;-33
2023/01/27 07:44:30;;;;;;;6.38;4.55;;;3.80;99.90;;;;;;4942393;28;89497;-34
2023/01/27 07:46:58;;;;;;;6.43;4.43;;;3.80;99.90;;;;;;4942183;28;88287;-34
2023/01/27 07:49:23;;;;;;;7.23;4.17;;;3.80;99.90;;;;;;4941579;28;91399;-32
2023/01/27 07:51:49;;;;;;;5.82;3.75;;;3.80;99.90;;;;;;4940997;28;90868;-31
2023/01/27 07:54:15;;;;;;;5.35;4.18;;;3.70;99.90;;;;;;4941933;28;90239;-34
2023/01/27 07:56:40;;;;;;;6.63;4.78;;;3.70;99.90;;;;;;4941884;28;89159;-32
2023/01/27 07:59:08;;;;;;;7.95;4.80;;;3.70;99.90;;;;;;4941566;28;90562;-34
2023/01/27 08:01:34;;;;;;;5.03;4.53;;;3.80;99.90;;;;;;4942573;28;90166;-32
2023/01/27 08:03:59;;;;;;;7.50;4.53;;;3.80;99.90;;;;;;4941644;28;89389;-32
2023/01/27 08:06:25;;;;;;;8.32;6.50;;;3.80;99.90;;;;;;4942172;28;89937;-32
2023/01/27 08:08:50;;;;;;;6.85;5.68;;;3.80;99.90;;;;;;4941811;28;90306;-34
2023/01/27 08:11:16;;;;;;;8.05;5.63;;;3.80;99.90;;;;;;4941289;28;89502;-33
2023/01/27 08:13:42;;;;;;;6.40;5.20;;;3.80;99.90;;;;;;4941510;28;89575;-31
2023/01/27 08:16:12;;;;;;;12.20;6.68;;;3.80;99.90;;;;;;4941532;28;89010;-32
2023/01/27 08:18:38;;;;;;;6.25;5.72;;;3.80;99.90;;;;;;4932876;28;90913;-33
2023/01/27 08:21:06;;;;;;;12.57;5.82;;;3.90;99.90;;;;;;4930874;28;90025;-32
2023/01/27 08:23:32;;;;;;;8.17;6.20;;;3.80;99.90;;;;;;4932353;28;90079;-33
2023/01/27 08:26:00;;;;;;;8.93;6.28;;;3.80;99.90;;;;;;4921905;28;88913;-31
2023/01/27 08:28:29;;;;;;;8.40;5.70;;;3.80;99.90;;;;;;4921876;28;90340;-33
2023/01/27 08:30:54;;;;;;;9.68;6.25;;;3.80;99.90;;;;;;4921692;28;89435;-32
2023/01/27 08:33:22;;;;;;;11.25;6.43;;;3.80;99.90;;;;;;4924403;28;89001;-33
2023/01/27 08:35:48;;;;;;;9.18;6.57;;;3.70;99.90;;;;;;4929642;28;88290;-33
2023/01/27 08:38:17;;;;;;;6.95;6.30;;;3.70;99.90;;;;;;4929037;28;90289;-32
2023/01/27 08:40:43;;;;;;;10.02;7.28;;;3.80;99.90;;;;;;4920093;28;89621;-34
2023/01/27 08:43:09;;;;;;;11.38;6.65;;;3.80;99.90;;;;;;4942415;28;90582;-32
2023/01/27 08:45:36;;;;;;;7.15;6.38;;;3.90;99.90;;;;;;4955486;28;90045;-33
2023/01/27 08:48:04;;;;;;;7.28;6.20;;;3.90;99.90;;;;;;4958268;28;90498;-33
2023/01/27 08:50:30;;;;;;;7.18;5.65;;;3.90;99.90;;;;;;4958702;28;89785;-31
2023/01/27 08:52:59;;;;;;;8.82;7.13;;;3.90;99.90;;;;;;4957916;28;89636;-33
2023/01/27 08:55:30;;;;;;;7.45;6.72;;;3.90;99.90;;;;;;4958470;28;88908;-32
2023/01/27 08:57:56;;;;;;;10.68;7.75;;;4.00;99.90;;;;;;4958393;28;91428;-32
2023/01/27 09:00:21;;;;;;;8.40;6.78;;;4.00;99.90;;;;;;4956252;28;89502;-32
2023/01/27 09:02:49;;;;;;;12.00;8.98;;;4.00;99.90;;;;;;4938731;28;89617;-31
2023/01/27 09:05:16;;;;;;;13.07;8.18;;;4.00;99.90;;;;;;4938909;28;88809;-32
2023/01/27 09:07:43;;;;;;;9.13;8.05;;;3.90;99.90;;;;;;4937847;28;89797;-32
2023/01/27 09:10:09;;;;;;;11.68;8.00;;;4.00;99.90;;;;;;4936234;28;89832;-34
2023/01/27 09:12:34;;;;;;;8.23;7.13;;;4.10;99.90;;;;;;4939140;28;90682;-32
2023/01/27 09:15:00;;;;;;;7.68;6.82;;;4.10;99.90;;;;;;4932640;28;88119;-32
2023/01/27 09:17:26;;;;;;;8.95;7.38;;;4.20;99.90;;;;;;4928015;28;89957;-34
2023/01/27 09:19:52;;;;;;;9.43;7.30;;;4.20;99.90;;;;;;4924983;28;89628;-33
2023/01/27 09:22:18;;;;;;;8.90;7.82;;;4.20;99.90;;;;;;4918976;28;89704;-34
2023/01/27 09:24:43;;;;;;;11.90;8.70;;;4.20;99.90;;;;;;4918729;28;89077;-33
2023/01/27 09:27:09;;;;;;;7.78;7.07;;;4.20;99.90;;;;;;4918619;28;89842;-33
2023/01/27 09:29:35;;;;;;;8.00;7.15;;;4.20;99.90;;;;;;4918627;28;90570;-33
2023/01/27 09:32:02;;;;;;;8.77;7.28;;;4.30;99.90;;;;;;4918271;28;89650;-32
2023/01/27 09:34:27;;;;;;;7.63;5.82;;;4.40;99.90;;;;;;4918748;28;88763;-33
2023/01/27 09:37:05;;;;;;;11.88;6.13;;;4.30;99.90;;;;;;4918598;28;91870;-32
2023/01/27 09:39:33;;;;;;;6.85;5.80;;;4.20;99.90;;;;;;4919075;28;89612;-32
2023/01/27 09:42:37;;;;;;;6.68;5.82;;;4.20;99.90;;;;;;4918096;28;89205;-31
2023/01/27 09:45:02;;;;;;;6.80;5.90;;;4.20;99.90;;;;;;4915926;28;88287;-32
2023/01/27 09:50:38;;;;;;;7.25;6.50;;;4.20;99.90;;;;;;4936414;28;89752;-32
2023/01/27 09:53:23;;;;;;;6.38;5.28;;;4.20;99.90;;;;;;4937809;28;90091;-33
2023/01/27 09:55:54;;;;;;;10.70;4.93;;;4.10;99.90;;;;;;4937373;28;89350;-33
2023/01/27 09:58:32;;;;;;;7.75;6.05;;;4.20;99.90;;;;;;4937309;28;90472;-34
2023/01/27 10:01:17;;;;;;;7.83;6.03;;;4.10;99.90;;;;;;4938025;28;89856;-33
2023/01/27 10:03:51;;;;;;;7.90;5.90;;;4.20;99.90;;;;;;4938303;28;90367;-33
2023/01/27 10:06:48;;;;;;;5.47;4.97;;;4.10;99.90;;;;;;4937499;28;87963;-31
2023/01/27 10:09:23;;;;;;;6.78;4.72;;;4.20;99.90;;;;;;4937893;28;89554;-31
2023/01/27 10:12:18;;;;;;;7.80;5.35;;;4.10;99.90;;;;;;4937618;28;90032;-32
2023/01/27 10:14:49;;;;;;;4.85;4.18;;;4.10;99.90;;;;;;4937642;28;88556;-34
2023/01/27 10:17:23;;;;;;;7.20;5.47;;;4.10;99.90;;;;;;4938425;28;89542;-33
2023/01/27 10:20:13;;;;;;;8.23;4.50;;;4.10;99.90;;;;;;4937684;28;89959;-31
2023/01/27 10:22:56;;;;;;;7.13;5.43;;;4.10;99.90;;;;;;4936473;28;90620;-31
2023/01/27 10:25:30;;;;;;;6.07;5.53;;;4.20;99.90;;;;;;4937302;28;90529;-32
2023/01/27 10:27:57;;;;;;;10.68;5.20;;;4.10;99.90;;;;;;4937620;28;89650;-34
2023/01/27 10:30:35;;;;;;;7.68;4.00;;;4.10;99.90;;;;;;4937498;28;89344;-33
2023/01/27 10:33:14;;;;;;;5.80;3.88;;;4.20;99.90;;;;;;4937349;28;89224;-31
2023/01/27 10:35:52;;;;;;;5.05;4.63;;;4.10;99.90;;;;;;4937434;28;89887;-33
2023/01/27 10:38:21;;;;;;;5.38;4.88;;;4.20;99.90;;;;;;4937004;28;89801;-31
2023/01/27 10:41:00;;;;;;;4.40;3.65;;;4.20;99.90;;;;;;4938087;28;90645;-32
2023/01/27 10:44:01;;;;;;;5.63;4.20;;;4.20;99.90;;;;;;4937266;28;91208;-33
2023/01/27 10:46:56;;;;;;;6.63;4.55;;;4.20;99.90;;;;;;4945436;28;89208;-32
2023/01/27 10:49:28;;;;;;;8.20;4.95;;;4.30;99.90;;;;;;4944337;28;90112;-32
2023/01/27 10:51:59;;;;;;;5.10;4.60;;;4.20;99.90;;;;;;4937500;28;90551;-31
2023/01/27 10:54:51;;;;;;;5.15;4.57;;;4.20;99.90;;;;;;4936529;28;89076;-34
2023/01/27 10:57:40;;;;;;;5.97;4.35;;;4.30;99.90;;;;;;4937217;28;90188;-33
2023/01/27 11:00:18;;;;;;;5.97;4.25;;;4.30;99.90;;;;;;4937793;28;89481;-31
2023/01/27 11:02:59;;;;;;;7.90;4.50;;;4.30;99.90;;;;;;4936543;28;90590;-34
2023/01/27 11:05:32;;;;;;;3.70;3.25;;;4.30;99.90;;;;;;4937545;28;89759;-32
2023/01/27 11:08:19;;;;;;;5.45;4.85;;;4.30;99.90;;;;;;4937136;28;89791;-34
2023/01/27 11:13:37;;;;;;;4.40;3.97;;;4.40;99.90;;;;;;4936782;28;90206;-32
2023/01/27 11:16:06;;;;;;;4.95;4.30;;;4.30;99.90;;;;;;4937390;28;90582;-32
2023/01/27 11:18:36;;;;;;;3.95;3.58;;;4.30;99.90;;;;;;4940219;28;90787;-33
2023/01/27 11:21:05;;;;;;;4.50;4.10;;;4.30;99.90;;;;;;4940815;28;89801;-33
2023/01/27 11:23:39;;;;;;;3.47;3.13;;;4.30;99.90;;;;;;4940448;28;90474;-32
2023/01/27 11:26:10;;;;;;;4.50;4.03;;;4.40;99.90;;;;;;4940311;28;88796;-32
2023/01/27 11:29:06;;;;;;;4.38;3.65;;;4.30;99.90;;;;;;4939809;28;89911;-35
2023/01/27 11:31:51;;;;;;;4.80;3.92;;;4.30;99.90;;;;;;4939772;28;88401;-35
2023/01/27 11:34:29;;;;;;;3.63;3.33;;;4.30;99.90;;;;;;4940645;28;89797;-31
2023/01/27 11:36:55;;;;;;;7.05;3.58;;;4.30;99.90;;;;;;4938792;28;89480;-33
2023/01/27 11:39:21;;;;;;;3.13;2.92;;;4.30;99.90;;;;;;4940251;28;89892;-34
2023/01/27 11:41:51;;;;;;;3.67;3.35;;;4.40;99.90;;;;;;4939152;28;89322;-32
2023/01/27 11:44:23;;;;;;;3.90;3.08;;;4.40;99.90;;;;;;4926997;28;90346;-33
2023/01/27 11:46:51;;;;;;;4.60;3.83;;;4.50;99.90;;;;;;4918200;28;90417;-32
2023/01/27 11:49:26;;;;;;;3.17;2.92;;;4.50;99.90;;;;;;4950553;28;89178;-34
2023/01/27 11:52:04;;;;;;;4.30;3.30;;;4.50;99.90;;;;;;4959150;28;88779;-34
2023/01/27 11:54:35;;;;;;;3.30;3.10;;;4.60;99.90;;;;;;4958896;28;91347;-31
2023/01/27 11:57:00;;;;;;;3.05;2.75;;;4.50;99.90;;;;;;4959441;28;89704;-34
2023/01/27 11:59:33;;;;;;;3.20;2.90;;;4.50;99.90;;;;;;4958565;28;89356;-32
2023/01/27 12:02:22;;;;;;;7.38;3.35;;;4.50;99.90;;;;;;4958920;28;88364;-32
2023/01/27 12:05:06;;;;;;;3.40;3.10;;;4.60;99.90;;;;;;4955973;28;90080;-33
2023/01/27 12:08:04;;;;;;;3.50;3.20;;;4.60;99.90;;;;;;4958064;28;91332;-31
2023/01/27 12:10:39;;;;;;;4.78;3.40;;;4.60;99.90;;;;;;4955763;28;90557;-32
2023/01/27 12:13:17;;;;;;;3.95;3.58;;;4.60;99.90;;;;;;4959619;28;89414;-32
2023/01/27 12:15:52;;;;;;;3.53;3.22;;;4.60;99.90;;;;;;4959061;28;89044;-32
2023/01/27 12:18:18;;;;;;;4.72;3.17;;;4.60;99.90;;;;;;4958581;28;89861;-34
2023/01/27 12:20:46;;;;;;;4.00;3.65;;;4.60;99.90;;;;;;4959447;28;89373;-33
2023/01/27 12:23:32;;;;;;;3.42;3.03;;;4.60;99.90;;;;;;4959083;28;87991;-33
2023/01/27 12:26:07;;;;;;;5.13;3.47;;;4.50;99.90;;;;;;4959313;28;90355;-32
2023/01/27 12:28:48;;;;;;;4.57;2.97;;;4.50;99.90;;;;;;4956770;28;89792;-35
2023/01/27 12:31:21;;;;;;;2.35;2.15;;;4.50;99.90;;;;;;4958799;28;89473;-32
2023/01/27 12:34:03;;;;;;;2.63;2.42;;;4.70;99.90;;;;;;4958873;28;88673;-31
2023/01/27 12:36:39;;;;;;;2.42;2.20;;;4.60;99.90;;;;;;4958512;28;89797;-32
2023/01/27 12:39:21;;;;;;;1.85;1.75;;;4.60;99.90;;;;;;4959571;28;89401;-31
2023/01/27 12:41:47;;;;;;;3.22;1.58;;;4.70;99.90;;;;;;4958271;28;88643;-33
2023/01/27 12:44:16;;;;;;;2.08;1.67;;;4.60;99.90;;;;;;4959103;28;89786;-32
2023/01/27 12:47:01;;;;;;;2.33;2.13;;;4.60;99.90;;;;;;4959967;28;89216;-33
2023/01/27 12:49:34;;;;;;;3.47;2.17;;;4.60;99.90;;;;;;4958160;28;89603;-34
2023/01/27 12:52:07;;;;;;;3.28;1.80;;;4.70;99.90;;;;;;4957920;28;89515;-32
2023/01/27 12:54:34;;;;;;;2.45;2.25;;;4.60;99.90;;;;;;4958562;28;88369;-32
2023/01/27 12:57:09;;;;;;;4.20;2.70;;;4.60;99.90;;;;;;4958744;28;90981;-33
2023/01/27 12:59:44;;;;;;;2.42;2.22;;;4.70;99.90;;;;;;4958284;28;89649;-33
2023/01/27 13:02:19;;;;;;;3.08;2.35;;;4.60;99.90;;;;;;4958978;28;90026;-32
2023/01/27 13:04:56;;;;;;;3.78;3.03;;;4.70;99.90;;;;;;4958423;28;89397;-32
2023/01/27 13:07:27;;;;;;;3.75;3.25;;;4.60;99.90;;;;;;4958836;28;90267;-32
2023/01/27 13:09:55;;;;;;;3.30;2.75;;;4.60;99.90;;;;;;4958577;28;90076;-33
2023/01/27 13:12:26;;;;;;;3.65;3.22;;;4.60;99.90;;;;;;4958448;28;89809;-34
2023/01/27 13:14:54;;;;;;;3.50;2.42;;;4.60;99.90;;;;;;4958104;28;87983;-32
2023/01/27 13:17:40;;;;;;;2.80;2.60;;;4.60;99.90;;;;;;4958876;28;89806;-35
2023/01/27 13:20:21;;;;;;;3.42;3.15;;;4.50;99.90;;;;;;4959820;28;89888;-33
2023/01/27 13:23:04;;;;;;;3.13;2.88;;;4.50;99.90;;;;;;4958221;28;88511;-32
2023/01/27 13:25:45;;;;;;;3.22;2.92;;;4.50;99.90;;;;;;4958280;28;90147;-33
2023/01/27 13:28:17;;;;;;;4.05;3.60;;;4.60;99.90;;;;;;4939400;28;90337;-34
2023/01/27 13:30:47;;;;;;;3.28;2.97;;;4.50;99.90;;;;;;4938879;28;89296;-33
2023/01/27 13:33:29;;;;;;;4.25;2.60;;;4.50;99.90;;;;;;4939162;28;89520;-31
2023/01/27 13:36:17;;;;;;;2.70;2.50;;;4.60;99.90;;;;;;4938733;28;89725;-32
2023/01/27 13:38:58;;;;;;;1.70;1.60;;;4.60;99.90;;;;;;4937808;28;90503;-32
2023/01/27 13:41:47;;;;;;;2.28;2.13;;;4.50;99.90;;;;;;4938202;28;90756;-32